createdAt,value
2019-01-28T00:00:38.820Z,45.34
2019-01-28T00:03:08.540Z,45.22
2019-01-28T00:05:36.976Z,45.17
2019-01-28T00:08:05.431Z,45.22
2019-01-28T00:10:33.808Z,45.31
2019-01-28T00:13:02.191Z,45.23
2019-01-28T00:15:30.578Z,45.30
2019-01-28T00:17:58.950Z,45.25
2019-01-28T00:20:28.151Z,45.23
2019-01-28T00:22:56.522Z,45.24
2019-01-28T00:25:24.914Z,45.26
2019-01-28T00:27:53.284Z,45.15
2019-01-28T00:30:21.669Z,45.20
2019-01-28T00:32:50.048Z,45.25
2019-01-28T00:35:18.439Z,45.26
2019-01-28T00:37:47.457Z,45.36
2019-01-28T00:40:15.986Z,45.27
2019-01-28T00:42:44.377Z,45.37
2019-01-28T00:45:13.898Z,45.26
2019-01-28T00:47:42.274Z,45.25
2019-01-28T00:50:12.296Z,45.28
2019-01-28T00:52:40.675Z,45.23
2019-01-28T00:55:11.311Z,45.21
2019-01-28T00:57:39.963Z,45.21
2019-01-28T01:00:17.104Z,45.19
2019-01-28T01:02:45.483Z,45.24
2019-01-28T01:05:13.873Z,45.23
2019-01-28T01:07:42.258Z,45.28
2019-01-28T01:10:12.087Z,45.29
2019-01-28T01:12:40.462Z,45.25
2019-01-28T01:15:14.096Z,45.22
2019-01-28T01:17:42.543Z,45.38
2019-01-28T01:20:14.203Z,45.37
2019-01-28T01:22:42.589Z,45.23
2019-01-28T01:25:11.415Z,45.32
2019-01-28T01:27:39.792Z,45.30
2019-01-28T01:30:11.306Z,45.32
2019-01-28T01:32:39.692Z,45.40
2019-01-28T01:35:08.172Z,45.30
2019-01-28T01:37:36.552Z,45.35
2019-01-28T01:40:08.493Z,45.34
2019-01-28T01:42:36.869Z,45.27
2019-01-28T01:45:08.559Z,45.34
2019-01-28T01:47:36.943Z,45.34
2019-01-28T01:50:08.481Z,45.31
2019-01-28T01:52:36.866Z,45.21
2019-01-28T01:55:08.136Z,45.40
2019-01-28T01:57:36.512Z,45.39
2019-01-28T02:00:10.735Z,45.27
2019-01-28T02:02:39.114Z,45.46
2019-01-28T02:05:07.955Z,45.25
2019-01-28T02:07:36.326Z,45.41
2019-01-28T02:10:08.095Z,45.40
2019-01-28T02:12:36.472Z,45.55
2019-01-28T02:15:07.944Z,45.44
2019-01-28T02:17:36.324Z,45.35
2019-01-28T02:20:07.657Z,45.45
2019-01-28T02:22:36.033Z,45.37
2019-01-28T02:25:06.714Z,45.49
2019-01-28T02:27:35.112Z,45.49
2019-01-28T02:30:05.439Z,45.57
2019-01-28T02:32:33.814Z,45.57
2019-01-28T02:35:02.194Z,45.51
2019-01-28T02:37:30.582Z,45.58
2019-01-28T02:39:59.332Z,45.60
2019-01-28T02:42:27.726Z,45.54
2019-01-28T02:44:56.097Z,45.56
2019-01-28T02:47:24.492Z,45.53
2019-01-28T02:49:52.855Z,45.58
2019-01-28T02:52:21.239Z,45.61
2019-01-28T02:54:49.617Z,45.56
2019-01-28T02:57:17.995Z,45.57
2019-01-28T02:59:46.370Z,45.62
2019-01-28T03:02:14.741Z,45.56
2019-01-28T03:04:43.118Z,45.58
2019-01-28T03:07:11.497Z,45.66
2019-01-28T03:09:39.866Z,45.59
2019-01-28T03:12:08.245Z,45.70
2019-01-28T03:14:36.618Z,45.60
2019-01-28T03:17:08.263Z,45.68
2019-01-28T03:19:36.702Z,45.64
2019-01-28T03:22:05.149Z,45.78
2019-01-28T03:24:33.514Z,45.67
2019-01-28T03:27:01.890Z,45.62
2019-01-28T03:29:30.257Z,45.58
2019-01-28T03:31:58.653Z,45.70
2019-01-28T03:34:27.012Z,45.74
2019-01-28T03:36:55.382Z,45.61
2019-01-28T03:39:23.758Z,45.70
2019-01-28T03:41:52.142Z,45.60
2019-01-28T03:44:20.504Z,45.49
2019-01-28T03:46:48.895Z,45.69
2019-01-28T03:49:17.493Z,45.70
2019-01-28T03:51:47.650Z,45.79
2019-01-28T03:54:16.123Z,45.75
2019-01-28T03:56:44.505Z,45.75
2019-01-28T03:59:12.871Z,45.85
2019-01-28T04:01:41.240Z,45.80
2019-01-28T04:04:09.606Z,45.69
2019-01-28T04:06:37.994Z,45.79
2019-01-28T04:09:08.214Z,45.76
2019-01-28T04:11:36.588Z,45.83
2019-01-28T04:14:05.891Z,45.77
2019-01-28T04:16:34.260Z,45.77
2019-01-28T04:19:02.639Z,45.95
2019-01-28T04:21:31.028Z,45.93
2019-01-28T04:24:00.211Z,46.13
2019-01-28T04:26:28.586Z,46.07
2019-01-28T04:28:56.985Z,46.21
2019-01-28T04:31:25.340Z,46.15
2019-01-28T04:33:53.709Z,46.25
2019-01-28T04:36:22.084Z,45.39
2019-01-28T04:38:50.456Z,45.93
2019-01-28T04:41:18.842Z,45.82
2019-01-28T04:43:47.218Z,46.33
2019-01-28T04:46:15.593Z,46.33
2019-01-28T04:48:43.976Z,46.21
2019-01-28T04:51:12.328Z,46.95
2019-01-28T04:53:40.701Z,47.08
2019-01-28T04:56:09.077Z,46.72
2019-01-28T04:58:37.450Z,46.76
2019-01-28T05:01:05.825Z,46.71
2019-01-28T05:03:34.218Z,46.57
2019-01-28T05:06:02.595Z,46.48
2019-01-28T05:08:30.953Z,46.34
2019-01-28T05:10:59.319Z,46.12
2019-01-28T05:13:27.704Z,46.37
2019-01-28T05:15:56.082Z,46.44
2019-01-28T05:18:24.469Z,46.09
2019-01-28T05:20:52.830Z,46.06
2019-01-28T05:23:21.240Z,46.31
2019-01-28T05:25:49.583Z,45.94
2019-01-28T05:28:17.968Z,46.36
2019-01-28T05:30:46.337Z,46.15
2019-01-28T05:33:14.732Z,46.33
2019-01-28T05:35:43.079Z,46.07
2019-01-28T05:38:11.453Z,46.16
2019-01-28T05:40:39.822Z,46.36
2019-01-28T05:43:08.218Z,46.31
2019-01-28T05:45:36.585Z,46.31
2019-01-28T05:48:04.969Z,46.14
2019-01-28T05:50:33.340Z,46.17
2019-01-28T05:53:01.727Z,46.26
2019-01-28T05:55:30.996Z,45.95
2019-01-28T06:00:27.132Z,46.01
2019-01-28T06:02:55.589Z,46.22
2019-01-28T06:05:23.967Z,46.17
2019-01-28T06:07:52.357Z,46.14
2019-01-28T06:10:20.789Z,46.25
2019-01-28T06:12:49.162Z,45.99
2019-01-28T06:15:19.172Z,46.05
2019-01-28T06:17:47.782Z,45.94
2019-01-28T06:20:18.599Z,46.15
2019-01-28T06:22:47.426Z,45.85
2019-01-28T06:25:16.137Z,46.04
2019-01-28T06:27:44.519Z,46.17
2019-01-28T06:30:26.743Z,46.11
2019-01-28T06:32:55.199Z,45.97
2019-01-28T06:35:23.634Z,46.02
2019-01-28T06:37:52.354Z,45.95
2019-01-28T06:40:23.638Z,46.06
2019-01-28T06:42:52.018Z,46.07
2019-01-28T06:45:20.384Z,46.00
2019-01-28T06:47:48.769Z,45.94
2019-01-28T06:50:19.575Z,45.93
2019-01-28T06:52:47.961Z,45.98
2019-01-28T06:55:16.601Z,45.78
2019-01-28T06:57:44.985Z,45.90
2019-01-28T07:00:24.954Z,45.45
2019-01-28T07:02:53.882Z,45.86
2019-01-28T07:05:22.328Z,45.95
2019-01-28T07:07:50.716Z,45.92
2019-01-28T07:10:19.150Z,45.82
2019-01-28T07:12:47.526Z,45.85
2019-01-28T07:15:21.488Z,46.00
2019-01-28T07:17:54.667Z,45.75
2019-01-28T07:20:26.656Z,45.95
2019-01-28T07:22:55.314Z,46.02
2019-01-28T07:25:23.685Z,45.81
2019-01-28T07:27:52.090Z,45.92
2019-01-28T07:30:32.965Z,45.99
2019-01-28T07:33:01.788Z,45.52
2019-01-28T07:35:35.462Z,46.57
2019-01-28T07:38:04.579Z,46.33
2019-01-28T07:40:33.027Z,46.13
2019-01-28T07:43:01.899Z,45.95
2019-01-28T07:45:34.820Z,46.46
2019-01-28T07:48:03.446Z,46.32
2019-01-28T07:50:32.126Z,45.92
2019-01-28T07:53:00.474Z,46.61
2019-01-28T07:55:28.855Z,46.13
2019-01-28T07:57:58.212Z,46.49
2019-01-28T08:00:31.841Z,46.17
2019-01-28T08:03:00.220Z,46.01
2019-01-28T08:05:28.687Z,46.57
2019-01-28T08:07:57.124Z,46.35
2019-01-28T08:10:25.647Z,46.66
2019-01-28T08:12:54.562Z,46.33
2019-01-28T08:15:25.176Z,46.69
2019-01-28T08:17:53.542Z,46.55
2019-01-28T08:20:22.457Z,46.50
2019-01-28T08:22:50.838Z,45.74
2019-01-28T08:25:20.750Z,46.23
2019-01-28T08:27:49.891Z,46.61
2019-01-28T08:30:31.229Z,46.74
2019-01-28T08:32:59.963Z,46.28
2019-01-28T08:35:30.088Z,46.63
2019-01-28T08:37:58.627Z,46.56
2019-01-28T08:40:27.254Z,46.02
2019-01-28T08:42:56.526Z,46.27
2019-01-28T08:45:24.973Z,46.10
2019-01-28T08:47:53.336Z,46.41
2019-01-28T08:50:26.676Z,46.67
2019-01-28T08:52:55.049Z,46.57
2019-01-28T08:55:25.663Z,46.16
2019-01-28T08:57:56.149Z,46.51
2019-01-28T09:00:33.483Z,46.60
2019-01-28T09:03:04.056Z,46.69
2019-01-28T09:05:32.889Z,46.41
2019-01-28T09:08:01.334Z,46.73
2019-01-28T09:10:31.152Z,46.92
2019-01-28T09:12:59.529Z,46.97
2019-01-28T09:15:28.080Z,45.03
2019-01-28T09:17:56.686Z,46.85
2019-01-28T09:20:29.879Z,47.26
2019-01-28T09:22:58.243Z,47.13
2019-01-28T09:25:26.441Z,47.39
2019-01-28T09:27:55.752Z,47.01
2019-01-28T09:30:26.462Z,47.45
2019-01-28T09:32:54.841Z,47.29
2019-01-28T09:35:23.354Z,45.94
2019-01-28T09:37:51.729Z,46.60
2019-01-28T09:40:23.358Z,47.06
2019-01-28T09:42:51.799Z,47.44
2019-01-28T09:45:22.870Z,47.52
2019-01-28T09:47:51.253Z,47.24
2019-01-28T09:50:20.184Z,47.13
2019-01-28T09:52:50.091Z,47.33
2019-01-28T09:55:18.804Z,47.29
2019-01-28T09:57:47.182Z,47.00
2019-01-28T10:00:20.197Z,47.15
2019-01-28T10:02:48.576Z,47.31
2019-01-28T10:05:17.487Z,47.31
2019-01-28T10:07:45.928Z,46.99
2019-01-28T10:10:19.985Z,47.18
2019-01-28T10:12:48.362Z,47.16
2019-01-28T10:15:28.606Z,47.17
2019-01-28T10:17:56.393Z,46.89
2019-01-28T10:20:33.554Z,47.47
2019-01-28T10:23:01.966Z,47.35
2019-01-28T10:25:30.406Z,46.84
2019-01-28T10:27:58.843Z,47.12
2019-01-28T10:30:41.890Z,47.28
2019-01-28T10:33:11.573Z,46.89
2019-01-28T10:35:40.898Z,47.21
2019-01-28T10:38:09.736Z,47.00
2019-01-28T10:40:40.784Z,46.98
2019-01-28T10:43:09.592Z,47.33
2019-01-28T10:45:42.113Z,47.29
2019-01-28T10:48:10.935Z,47.15
2019-01-28T10:50:40.153Z,47.15
2019-01-28T10:53:08.601Z,47.22
2019-01-28T10:55:37.049Z,47.21
2019-01-28T10:58:05.755Z,47.11
2019-01-28T11:00:36.992Z,47.24
2019-01-28T11:03:06.798Z,47.19
2019-01-28T11:05:36.382Z,47.10
2019-01-28T11:08:05.581Z,47.22
2019-01-28T11:10:34.050Z,46.94
2019-01-28T11:13:02.528Z,46.56
2019-01-28T11:15:31.518Z,47.08
2019-01-28T11:18:05.394Z,47.19
2019-01-28T11:20:33.974Z,47.30
2019-01-28T11:23:02.436Z,46.75
2019-01-28T11:25:33.574Z,47.01
2019-01-28T11:28:01.955Z,46.81
2019-01-28T11:30:44.465Z,47.04
2019-01-28T11:33:13.041Z,47.32
2019-01-28T11:35:42.099Z,47.34
2019-01-28T11:38:10.905Z,47.10
2019-01-28T11:40:40.671Z,46.81
2019-01-28T11:43:09.293Z,47.11
2019-01-28T11:45:41.473Z,47.01
2019-01-28T11:48:10.037Z,47.05
2019-01-28T11:50:41.386Z,47.05
2019-01-28T11:53:09.758Z,47.01
2019-01-28T11:55:38.139Z,47.03
2019-01-28T11:58:06.846Z,47.03
2019-01-28T12:00:48.354Z,46.87
2019-01-28T12:03:16.723Z,46.85
2019-01-28T12:05:51.118Z,46.97
2019-01-28T12:08:20.675Z,47.01
2019-01-28T12:10:49.137Z,46.41
2019-01-28T12:13:17.501Z,47.07
2019-01-28T12:15:45.945Z,46.73
2019-01-28T12:18:15.292Z,46.92
2019-01-28T12:20:44.733Z,47.05
2019-01-28T12:23:13.903Z,47.10
2019-01-28T12:25:42.345Z,47.12
2019-01-28T12:28:10.986Z,47.15
2019-01-28T12:30:39.787Z,47.17
2019-01-28T12:33:08.186Z,46.87
2019-01-28T12:35:36.554Z,47.14
2019-01-28T12:38:05.268Z,46.78
2019-01-28T12:40:34.411Z,46.40
2019-01-28T12:43:02.790Z,47.04
2019-01-28T12:45:31.164Z,46.94
2019-01-28T12:47:59.552Z,47.11
2019-01-28T12:50:28.358Z,46.78
2019-01-28T12:52:56.734Z,47.16
2019-01-28T12:55:28.368Z,46.93
2019-01-28T12:57:56.768Z,47.28
2019-01-28T13:00:36.122Z,47.22
2019-01-28T13:03:05.830Z,46.70
2019-01-28T13:05:34.674Z,47.01
2019-01-28T13:08:03.067Z,47.03
2019-01-28T13:10:31.507Z,47.22
2019-01-28T13:12:59.893Z,46.91
2019-01-28T13:15:33.111Z,47.23
2019-01-28T13:18:01.478Z,47.35
2019-01-28T13:20:30.285Z,47.00
2019-01-28T13:22:58.802Z,47.17
2019-01-28T13:25:32.479Z,47.17
2019-01-28T13:28:00.847Z,46.89
2019-01-28T13:30:35.393Z,46.88
2019-01-28T13:33:07.022Z,46.98
2019-01-28T13:35:35.395Z,46.48
2019-01-28T13:38:03.843Z,46.91
2019-01-28T13:40:33.145Z,46.67
2019-01-28T13:43:02.398Z,47.11
2019-01-28T13:45:30.783Z,47.05
2019-01-28T13:47:59.504Z,47.28
2019-01-28T13:50:28.039Z,46.93
2019-01-28T13:52:56.703Z,47.18
2019-01-28T13:55:25.166Z,48.08
2019-01-28T13:57:53.545Z,49.17
2019-01-28T14:00:30.720Z,49.76
2019-01-28T14:02:59.665Z,49.57
2019-01-28T14:05:28.336Z,48.39
2019-01-28T14:07:57.346Z,49.36
2019-01-28T14:10:28.111Z,50.03
2019-01-28T14:12:56.718Z,49.63
2019-01-28T14:15:36.032Z,49.68
2019-01-28T14:18:06.732Z,49.71
2019-01-28T14:20:37.334Z,49.29
2019-01-28T14:23:06.146Z,49.75
2019-01-28T14:25:35.410Z,49.44
2019-01-28T14:28:05.759Z,49.72
2019-01-28T14:30:44.974Z,48.73
2019-01-28T14:33:13.392Z,49.59
2019-01-28T14:35:42.107Z,48.92
2019-01-28T14:38:11.324Z,48.42
2019-01-28T14:40:40.924Z,49.32
2019-01-28T14:43:09.769Z,49.23
2019-01-28T14:45:38.152Z,49.04
2019-01-28T14:48:07.875Z,49.14
2019-01-28T14:50:37.872Z,49.02
2019-01-28T14:53:06.329Z,48.87
2019-01-28T14:55:35.839Z,48.73
2019-01-28T14:58:05.557Z,48.55
2019-01-28T15:00:38.917Z,48.55
2019-01-28T15:03:07.407Z,48.49
2019-01-28T15:05:36.802Z,48.43
2019-01-28T15:08:06.472Z,48.19
2019-01-28T15:10:35.761Z,48.02
2019-01-28T15:13:04.999Z,48.35
2019-01-28T15:15:38.320Z,47.96
2019-01-28T15:18:08.041Z,48.35
2019-01-28T15:20:36.406Z,47.78
2019-01-28T15:23:05.789Z,47.96
2019-01-28T15:25:34.162Z,47.23
2019-01-28T15:28:02.712Z,47.62
2019-01-28T15:30:32.015Z,47.70
2019-01-28T15:33:00.604Z,47.67
2019-01-28T15:35:28.988Z,48.14
2019-01-28T15:37:57.373Z,48.07
2019-01-28T15:40:32.240Z,47.94
2019-01-28T15:43:00.705Z,47.76
2019-01-28T15:45:31.615Z,48.17
2019-01-28T15:47:59.993Z,48.22
2019-01-28T15:50:28.367Z,48.02
2019-01-28T15:52:56.743Z,47.92
2019-01-28T15:55:33.616Z,48.06
2019-01-28T15:58:02.162Z,47.96
2019-01-28T16:00:33.132Z,47.77
2019-01-28T16:03:02.277Z,47.93
2019-01-28T16:05:30.643Z,47.99
2019-01-28T16:07:59.013Z,48.11
2019-01-28T16:10:28.363Z,48.06
2019-01-28T16:12:56.803Z,47.99
2019-01-28T16:15:33.913Z,48.07
2019-01-28T16:18:02.434Z,48.13
2019-01-28T16:20:30.804Z,48.11
2019-01-28T16:22:59.331Z,48.10
2019-01-28T16:25:27.714Z,48.12
2019-01-28T16:27:56.084Z,48.04
2019-01-28T16:30:26.916Z,48.39
2019-01-28T16:32:55.453Z,48.51
2019-01-28T16:35:24.002Z,48.82
2019-01-28T16:37:54.104Z,49.93
2019-01-28T16:40:27.847Z,51.18
2019-01-28T16:42:57.364Z,51.98
2019-01-28T16:45:26.921Z,54.15
2019-01-28T16:47:56.271Z,54.10
2019-01-28T16:50:32.688Z,55.03
2019-01-28T16:53:01.082Z,54.43
2019-01-28T16:55:29.457Z,53.10
2019-01-28T16:57:58.865Z,52.95
2019-01-28T17:00:29.492Z,51.99
2019-01-28T17:02:57.859Z,51.47
2019-01-28T17:05:26.759Z,51.82
2019-01-28T17:07:55.186Z,51.75
2019-01-28T17:10:24.031Z,51.04
2019-01-28T17:12:52.401Z,51.05
2019-01-28T17:15:24.555Z,51.19
2019-01-28T17:17:52.989Z,51.89
2019-01-28T17:20:35.135Z,51.12
2019-01-28T17:22:59.949Z,51.00
2019-01-28T17:25:34.179Z,51.15
2019-01-28T17:28:02.621Z,51.02
2019-01-28T17:30:35.979Z,50.97
2019-01-28T17:33:05.690Z,50.17
2019-01-28T17:35:34.124Z,50.63
2019-01-28T17:38:02.486Z,50.90
2019-01-28T17:40:32.412Z,50.19
2019-01-28T17:43:00.781Z,50.65
2019-01-28T17:45:29.401Z,50.17
2019-01-28T17:47:58.238Z,50.32
2019-01-28T17:50:27.282Z,50.64
2019-01-28T17:52:55.721Z,50.66
2019-01-28T17:55:24.101Z,50.71
2019-01-28T17:57:52.475Z,50.17
2019-01-28T18:00:30.132Z,50.53
2019-01-28T18:03:00.457Z,50.66
2019-01-28T18:05:30.801Z,49.92
2019-01-28T18:07:59.183Z,50.12
2019-01-28T18:10:30.616Z,50.16
2019-01-28T18:12:58.992Z,50.14
2019-01-28T18:15:28.318Z,49.99
2019-01-28T18:17:56.694Z,49.56
2019-01-28T18:20:25.154Z,50.05
2019-01-28T18:22:53.588Z,49.83
2019-01-28T18:25:34.440Z,49.27
2019-01-28T18:28:03.092Z,50.01
2019-01-28T18:30:44.214Z,49.54
2019-01-28T18:33:12.582Z,49.71
2019-01-28T18:35:40.974Z,49.51
2019-01-28T18:38:09.784Z,49.23
2019-01-28T18:40:38.163Z,49.15
2019-01-28T18:43:07.929Z,49.70
2019-01-28T18:45:36.649Z,49.41
2019-01-28T18:48:06.475Z,49.71
2019-01-28T18:50:38.260Z,49.45
2019-01-28T18:53:07.581Z,48.50
2019-01-28T18:55:35.912Z,48.93
2019-01-28T18:58:04.817Z,48.76
2019-01-28T19:00:34.539Z,49.24
2019-01-28T19:03:02.976Z,49.62
2019-01-28T19:05:49.149Z,48.73
2019-01-28T19:08:30.858Z,49.12
2019-01-28T19:11:09.538Z,48.87
2019-01-28T19:13:57.323Z,49.55
2019-01-28T19:16:30.099Z,49.49
2019-01-28T19:19:02.552Z,49.02
2019-01-28T19:21:47.489Z,49.29
2019-01-28T19:24:15.854Z,48.98
2019-01-28T19:26:44.250Z,49.35
2019-01-28T19:29:12.628Z,48.86
2019-01-28T19:31:41.011Z,49.45
2019-01-28T19:34:09.399Z,49.19
2019-01-28T19:36:37.921Z,48.87
2019-01-28T19:39:08.623Z,48.95
2019-01-28T19:41:38.049Z,48.84
2019-01-28T19:44:06.511Z,48.86
2019-01-28T19:46:34.912Z,49.10
2019-01-28T19:49:03.283Z,48.60
2019-01-28T19:51:31.657Z,49.21
2019-01-28T19:54:00.033Z,49.15
2019-01-28T19:56:28.419Z,49.00
2019-01-28T19:58:57.759Z,48.44
2019-01-28T20:01:26.152Z,49.09
2019-01-28T20:03:54.516Z,49.08
2019-01-28T20:06:22.903Z,49.32
2019-01-28T20:08:51.275Z,49.08
2019-01-28T20:11:19.653Z,49.02
2019-01-28T20:13:48.067Z,48.87
2019-01-28T20:16:16.448Z,49.02
2019-01-28T20:18:44.817Z,49.23
2019-01-28T20:21:13.216Z,48.84
2019-01-28T20:23:41.595Z,49.22
2019-01-28T20:26:09.954Z,48.88
2019-01-28T20:28:38.355Z,48.32
2019-01-28T20:31:06.969Z,47.54
2019-01-28T20:33:35.342Z,49.19
2019-01-28T20:36:03.891Z,49.19
2019-01-28T20:38:32.265Z,48.56
2019-01-28T20:41:00.652Z,48.66
2019-01-28T20:43:29.025Z,48.96
2019-01-28T20:45:57.426Z,49.01
2019-01-28T20:48:25.783Z,48.75
2019-01-28T20:50:54.158Z,48.66
2019-01-28T20:53:22.532Z,48.32
2019-01-28T20:55:50.962Z,48.95
2019-01-28T20:58:19.387Z,48.47
2019-01-28T21:00:47.775Z,48.58
2019-01-28T21:03:16.447Z,48.14
2019-01-28T21:05:44.816Z,48.33
2019-01-28T21:08:13.168Z,48.02
2019-01-28T21:10:41.592Z,48.64
2019-01-28T21:13:10.261Z,48.50
2019-01-28T21:15:44.668Z,47.44
2019-01-28T21:18:13.183Z,48.07
2019-01-28T21:20:41.544Z,48.39
2019-01-28T21:23:09.919Z,48.23
2019-01-28T21:25:38.893Z,47.61
2019-01-28T21:28:07.282Z,48.34
2019-01-28T21:30:36.001Z,48.06
2019-01-28T21:33:04.570Z,48.55
2019-01-28T21:35:37.383Z,47.74
2019-01-28T21:38:07.404Z,47.22
2019-01-28T21:40:35.764Z,48.29
2019-01-28T21:43:04.578Z,48.28
2019-01-28T21:45:32.942Z,48.18
2019-01-28T21:48:01.317Z,47.73
2019-01-28T21:50:29.699Z,48.37
2019-01-28T21:52:58.097Z,48.67
2019-01-28T21:55:26.468Z,48.11
2019-01-28T21:57:54.858Z,48.63
2019-01-28T22:00:23.304Z,48.38
2019-01-28T22:02:51.715Z,48.41
2019-01-28T22:05:20.052Z,48.21
2019-01-28T22:07:48.435Z,48.60
2019-01-28T22:10:16.940Z,48.51
2019-01-28T22:12:45.326Z,49.22
2019-01-28T22:15:18.464Z,48.31
2019-01-28T22:17:46.833Z,47.03
2019-01-28T22:20:15.877Z,47.47
2019-01-28T22:22:44.430Z,46.83
2019-01-28T22:25:17.021Z,47.18
2019-01-28T22:27:45.383Z,47.44
2019-01-28T22:30:19.338Z,47.35
2019-01-28T22:32:47.894Z,47.28
2019-01-28T22:35:16.258Z,47.07
2019-01-28T22:37:44.632Z,46.97
2019-01-28T22:40:15.046Z,47.15
2019-01-28T22:42:43.433Z,47.67
2019-01-28T22:45:14.783Z,47.42
2019-01-28T22:47:43.164Z,47.42
2019-01-28T22:50:16.866Z,47.32
2019-01-28T22:52:45.625Z,47.34
2019-01-28T22:55:16.434Z,47.58
2019-01-28T22:57:44.817Z,47.44
2019-01-28T23:00:20.414Z,47.62
2019-01-28T23:02:48.866Z,47.63
2019-01-28T23:05:17.159Z,47.61
2019-01-28T23:07:45.549Z,47.47
2019-01-28T23:10:13.928Z,47.63
2019-01-28T23:12:42.341Z,47.41
2019-01-28T23:15:11.463Z,47.61
2019-01-28T23:17:39.843Z,47.68
2019-01-28T23:20:09.359Z,47.61
2019-01-28T23:22:37.741Z,47.54
2019-01-28T23:25:06.852Z,47.77
2019-01-28T23:27:35.232Z,47.74
2019-01-28T23:30:04.911Z,47.39
2019-01-28T23:32:33.291Z,47.22
2019-01-28T23:35:01.658Z,47.42
2019-01-28T23:37:30.034Z,47.39
2019-01-28T23:39:58.402Z,47.83
2019-01-28T23:42:26.778Z,47.75
2019-01-28T23:44:55.157Z,47.72
2019-01-28T23:47:23.624Z,46.88
2019-01-28T23:49:52.042Z,46.88
2019-01-28T23:52:25.077Z,47.61
2019-01-28T23:54:50.533Z,47.53
2019-01-28T23:57:18.922Z,47.71
2019-01-28T23:59:47.293Z,47.37
